createdAt,value
2023-04-16T00:00:09.414Z,4.00
2023-04-16T00:01:46.310Z,4.13
2023-04-16T00:03:19.700Z,4.53
2023-04-16T00:04:52.892Z,4.78
2023-04-16T00:06:26.195Z,4.40
2023-04-16T00:08:00.703Z,4.15
2023-04-16T00:09:33.828Z,4.22
2023-04-16T00:11:07.194Z,4.53
2023-04-16T00:12:40.326Z,4.63
2023-04-16T00:14:12.472Z,4.60
2023-04-16T00:15:45.746Z,3.90
2023-04-16T00:17:18.870Z,4.65
2023-04-16T00:18:51.913Z,5.03
2023-04-16T00:20:24.276Z,4.75
2023-04-16T00:21:57.336Z,4.57
2023-04-16T00:23:31.770Z,4.68
2023-04-16T00:25:05.979Z,4.65
2023-04-16T00:26:39.173Z,4.72
2023-04-16T00:28:11.306Z,4.85
2023-04-16T00:29:44.408Z,4.85
2023-04-16T00:31:17.495Z,4.78
2023-04-16T00:32:50.712Z,4.82
2023-04-16T00:34:24.087Z,4.80
2023-04-16T00:35:57.275Z,5.20
2023-04-16T00:37:31.716Z,5.10
2023-04-16T00:39:06.415Z,4.97
2023-04-16T00:40:39.789Z,4.70
2023-04-16T00:42:12.959Z,5.22
2023-04-16T00:43:46.261Z,5.38
2023-04-16T00:45:19.610Z,5.70
2023-04-16T00:46:53.228Z,5.28
2023-04-16T00:48:28.178Z,5.25
2023-04-16T00:50:00.524Z,6.15
2023-04-16T00:51:36.120Z,5.25
2023-04-16T00:53:09.726Z,5.22
2023-04-16T00:54:44.875Z,5.50
2023-04-16T00:56:18.189Z,6.40
2023-04-16T00:57:50.516Z,6.20
2023-04-16T00:59:24.006Z,5.90
2023-04-16T01:00:57.621Z,5.90
2023-04-16T01:02:31.179Z,6.10
2023-04-16T01:04:07.353Z,5.93
2023-04-16T01:05:41.085Z,6.18
2023-04-16T01:07:14.586Z,6.80
2023-04-16T01:08:48.856Z,7.10
2023-04-16T01:10:24.058Z,6.72
2023-04-16T01:13:29.732Z,5.63
2023-04-16T01:15:03.197Z,5.88
2023-04-16T01:16:36.909Z,6.30
2023-04-16T01:18:15.186Z,6.32
2023-04-16T01:19:48.510Z,6.70
2023-04-16T01:21:23.048Z,6.30
2023-04-16T01:22:56.471Z,6.82
2023-04-16T01:24:29.793Z,6.30
2023-04-16T01:26:03.095Z,6.55
2023-04-16T01:27:35.421Z,6.53
2023-04-16T01:29:08.841Z,6.53
2023-04-16T01:30:42.384Z,6.40
2023-04-16T01:32:36.444Z,6.07
2023-04-16T01:34:09.687Z,6.40
2023-04-16T01:35:43.467Z,6.25
2023-04-16T01:37:19.717Z,6.35
2023-04-16T01:38:52.972Z,6.68
2023-04-16T01:40:25.228Z,6.28
2023-04-16T01:41:58.398Z,5.05
2023-04-16T01:43:31.522Z,5.60
2023-04-16T01:45:05.325Z,5.10
2023-04-16T01:46:39.611Z,5.60
2023-04-16T01:48:13.266Z,5.45
2023-04-16T01:49:48.135Z,5.65
2023-04-16T01:51:21.349Z,4.90
2023-04-16T01:52:55.850Z,5.10
2023-04-16T01:54:29.140Z,4.95
2023-04-16T01:56:02.270Z,5.03
2023-04-16T01:57:34.532Z,4.97
2023-04-16T01:59:07.947Z,4.53
2023-04-16T02:00:45.954Z,5.07
2023-04-16T02:02:19.374Z,4.97
2023-04-16T02:03:52.880Z,5.13
2023-04-16T02:05:26.632Z,4.63
2023-04-16T02:06:58.872Z,4.97
2023-04-16T02:08:33.614Z,4.82
2023-04-16T02:10:10.382Z,5.03
2023-04-16T02:11:45.589Z,5.00
2023-04-16T02:13:18.899Z,4.72
2023-04-16T02:14:53.816Z,4.65
2023-04-16T02:16:28.056Z,5.20
2023-04-16T02:18:11.051Z,5.35
2023-04-16T02:19:44.625Z,5.55
2023-04-16T02:21:18.957Z,5.68
2023-04-16T02:22:52.479Z,6.07
2023-04-16T02:24:29.897Z,5.47
2023-04-16T02:26:04.905Z,5.53
2023-04-16T02:27:38.227Z,5.35
2023-04-16T02:29:25.948Z,5.88
2023-04-16T02:31:08.436Z,5.50
2023-04-16T02:32:46.604Z,5.80
2023-04-16T02:34:20.692Z,5.90
2023-04-16T02:35:54.362Z,6.30
2023-04-16T02:37:26.488Z,6.15
2023-04-16T02:39:00.249Z,7.78
2023-04-16T02:40:33.862Z,7.22
2023-04-16T02:42:06.980Z,7.25
2023-04-16T02:43:40.732Z,6.95
2023-04-16T02:45:14.336Z,6.10
2023-04-16T02:46:47.671Z,6.93
2023-04-16T02:48:20.914Z,7.45
2023-04-16T02:49:54.033Z,7.68
2023-04-16T02:51:27.654Z,7.85
2023-04-16T02:53:01.059Z,7.13
2023-04-16T02:54:34.287Z,7.63
2023-04-16T02:56:09.249Z,7.65
2023-04-16T02:57:42.674Z,7.55
2023-04-16T02:59:15.920Z,6.93
2023-04-16T03:00:49.502Z,7.07
2023-04-16T03:02:22.846Z,7.95
2023-04-16T03:03:56.307Z,7.80
2023-04-16T03:05:29.505Z,7.55
2023-04-16T03:07:02.700Z,7.22
2023-04-16T03:08:35.899Z,6.78
2023-04-16T03:10:11.868Z,7.60
2023-04-16T03:11:46.426Z,8.32
2023-04-16T03:13:19.545Z,8.02
2023-04-16T03:14:53.239Z,7.38
2023-04-16T03:16:26.950Z,7.60
2023-04-16T03:18:00.406Z,6.97
2023-04-16T03:19:33.658Z,8.15
2023-04-16T03:21:07.436Z,7.78
2023-04-16T03:22:40.650Z,7.07
2023-04-16T03:24:13.770Z,7.05
2023-04-16T03:25:48.173Z,7.20
2023-04-16T03:27:25.800Z,7.78
2023-04-16T03:28:59.412Z,6.45
2023-04-16T03:30:33.750Z,6.75
2023-04-16T03:32:07.242Z,6.65
2023-04-16T03:33:40.528Z,7.03
2023-04-16T03:35:12.783Z,7.30
2023-04-16T03:36:46.288Z,7.10
2023-04-16T03:38:18.656Z,7.60
2023-04-16T03:39:52.848Z,6.97
2023-04-16T03:41:26.058Z,7.30
2023-04-16T03:43:00.581Z,6.72
2023-04-16T03:44:34.860Z,6.75
2023-04-16T03:46:08.738Z,7.80
2023-04-16T03:47:41.339Z,6.55
2023-04-16T03:49:15.575Z,7.32
2023-04-16T03:50:49.132Z,7.70
2023-04-16T03:52:24.057Z,7.47
2023-04-16T03:53:57.902Z,7.15
2023-04-16T03:55:32.090Z,7.97
2023-04-16T03:57:05.601Z,7.45
2023-04-16T03:58:40.800Z,8.10
2023-04-16T04:00:15.189Z,8.85
2023-04-16T04:01:56.824Z,8.43
2023-04-16T04:03:30.356Z,8.23
2023-04-16T04:05:04.096Z,8.02
2023-04-16T04:06:37.721Z,8.25
2023-04-16T04:08:10.971Z,8.43
2023-04-16T04:09:44.273Z,8.98
2023-04-16T04:11:17.448Z,8.20
2023-04-16T04:12:51.031Z,7.53
2023-04-16T04:14:25.567Z,7.78
2023-04-16T04:15:58.832Z,8.65
2023-04-16T04:17:33.662Z,7.60
2023-04-16T04:19:07.826Z,8.93
2023-04-16T04:20:40.864Z,8.55
2023-04-16T04:22:14.690Z,8.57
2023-04-16T04:23:47.803Z,8.73
2023-04-16T04:25:21.113Z,8.88
2023-04-16T04:26:54.249Z,8.57
2023-04-16T04:28:27.836Z,8.60
2023-04-16T04:30:02.716Z,9.23
2023-04-16T04:33:09.533Z,8.10
2023-04-16T04:34:44.662Z,7.30
2023-04-16T04:36:18.034Z,8.68
2023-04-16T04:37:50.639Z,8.13
2023-04-16T04:41:00.220Z,7.03
2023-04-16T04:42:35.298Z,7.57
2023-04-16T04:44:08.545Z,8.27
2023-04-16T04:45:43.420Z,9.43
2023-04-16T04:47:17.098Z,9.10
2023-04-16T04:48:50.486Z,8.50
2023-04-16T04:50:22.835Z,8.25
2023-04-16T04:51:55.984Z,9.52
2023-04-16T04:53:29.172Z,9.20
2023-04-16T04:55:02.324Z,8.80
2023-04-16T04:56:36.377Z,8.63
2023-04-16T04:58:09.860Z,9.15
2023-04-16T04:59:43.656Z,9.07
2023-04-16T05:01:19.772Z,8.38
2023-04-16T05:02:53.027Z,9.63
2023-04-16T05:04:26.407Z,9.77
2023-04-16T05:05:59.610Z,8.57
2023-04-16T05:07:33.450Z,8.82
2023-04-16T05:09:11.412Z,8.15
2023-04-16T05:10:44.839Z,8.82
2023-04-16T05:12:17.990Z,9.93
2023-04-16T05:13:51.088Z,9.00
2023-04-16T05:15:24.408Z,9.48
2023-04-16T05:16:58.992Z,9.93
2023-04-16T05:18:33.517Z,10.13
2023-04-16T05:20:08.629Z,9.95
2023-04-16T05:21:46.028Z,9.50
2023-04-16T05:23:19.399Z,10.48
2023-04-16T05:24:52.566Z,10.80
2023-04-16T05:26:25.779Z,10.27
2023-04-16T05:27:59.129Z,10.38
2023-04-16T05:29:32.513Z,10.20
2023-04-16T05:31:06.304Z,11.07
2023-04-16T05:32:42.123Z,11.55
2023-04-16T05:34:33.129Z,8.45
2023-04-16T05:36:21.349Z,9.78
2023-04-16T05:37:54.869Z,11.23
2023-04-16T05:39:28.066Z,10.73
2023-04-16T05:41:01.251Z,11.13
2023-04-16T05:42:34.537Z,11.05
2023-04-16T05:44:07.698Z,10.88
2023-04-16T05:45:41.407Z,10.75
2023-04-16T05:47:14.857Z,10.25
2023-04-16T05:48:49.399Z,10.88
2023-04-16T05:50:22.563Z,12.30
2023-04-16T05:51:54.716Z,12.13
2023-04-16T05:53:27.871Z,12.88
2023-04-16T05:55:01.797Z,12.57
2023-04-16T05:56:35.206Z,12.52
2023-04-16T05:58:08.345Z,12.88
2023-04-16T05:59:41.805Z,12.82
2023-04-16T06:01:14.936Z,13.18
2023-04-16T06:02:48.245Z,13.75
2023-04-16T06:04:22.924Z,12.15
2023-04-16T06:05:56.388Z,13.48
2023-04-16T06:07:29.649Z,12.23
2023-04-16T06:09:02.791Z,11.77
2023-04-16T06:10:35.189Z,12.55
2023-04-16T06:12:08.540Z,12.43
2023-04-16T06:13:41.753Z,12.02
2023-04-16T06:15:14.970Z,12.38
2023-04-16T06:16:48.290Z,12.27
2023-04-16T06:18:21.430Z,13.68
2023-04-16T06:19:55.875Z,12.88
2023-04-16T06:21:31.669Z,12.77
2023-04-16T06:23:04.754Z,13.57
2023-04-16T06:24:38.004Z,13.55
2023-04-16T06:26:12.764Z,13.77
2023-04-16T06:27:45.985Z,12.60
2023-04-16T06:29:19.118Z,13.80
2023-04-16T06:30:52.736Z,13.93
2023-04-16T06:32:26.404Z,13.32
2023-04-16T06:33:59.861Z,15.02
2023-04-16T06:35:34.450Z,14.32
2023-04-16T06:37:10.336Z,12.50
2023-04-16T06:38:44.356Z,13.45
2023-04-16T06:40:17.818Z,14.50
2023-04-16T06:41:51.228Z,13.57
2023-04-16T06:43:24.656Z,14.60
2023-04-16T06:44:57.864Z,15.10
2023-04-16T06:46:31.117Z,14.25
2023-04-16T06:48:05.273Z,14.18
2023-04-16T06:49:39.768Z,15.02
2023-04-16T06:51:14.352Z,14.23
2023-04-16T06:52:47.631Z,13.63
2023-04-16T06:54:20.756Z,14.32
2023-04-16T06:55:53.930Z,14.50
2023-04-16T06:57:27.016Z,14.15
2023-04-16T06:59:00.926Z,13.52
2023-04-16T07:00:34.149Z,14.73
2023-04-16T07:02:09.224Z,13.93
2023-04-16T07:03:42.457Z,14.45
2023-04-16T07:05:15.986Z,13.85
2023-04-16T07:06:50.595Z,13.73
2023-04-16T07:08:24.404Z,14.80
2023-04-16T07:09:57.519Z,15.13
2023-04-16T07:11:31.185Z,14.15
2023-04-16T07:13:04.412Z,13.88
2023-04-16T07:14:37.524Z,13.43
2023-04-16T07:16:10.662Z,14.20
2023-04-16T07:17:43.880Z,14.00
2023-04-16T07:19:17.124Z,13.57
2023-04-16T07:20:50.309Z,14.23
2023-04-16T07:22:24.874Z,13.73
2023-04-16T07:23:58.088Z,13.55
2023-04-16T07:25:31.327Z,13.25
2023-04-16T07:27:04.740Z,13.30
2023-04-16T07:28:37.925Z,12.60
2023-04-16T07:30:11.813Z,14.27
2023-04-16T07:31:45.925Z,12.65
2023-04-16T07:33:19.226Z,13.95
2023-04-16T07:34:52.409Z,13.00
2023-04-16T07:36:27.392Z,13.48
2023-04-16T07:38:01.992Z,12.80
2023-04-16T07:39:35.405Z,12.65
2023-04-16T07:41:09.093Z,13.10
2023-04-16T07:42:42.346Z,13.25
2023-04-16T07:44:15.498Z,12.75
2023-04-16T07:45:48.704Z,12.45
2023-04-16T07:47:23.277Z,12.55
2023-04-16T07:48:56.525Z,12.75
2023-04-16T07:50:29.635Z,11.25
2023-04-16T07:52:03.734Z,14.57
2023-04-16T07:53:38.301Z,13.23
2023-04-16T07:55:11.512Z,11.85
2023-04-16T07:56:45.070Z,14.25
2023-04-16T07:58:18.234Z,15.20
2023-04-16T07:59:52.096Z,14.77
2023-04-16T08:01:25.618Z,16.00
2023-04-16T08:02:59.111Z,13.55
2023-04-16T08:04:32.668Z,14.35
2023-04-16T08:06:06.000Z,13.25
2023-04-16T08:07:39.194Z,13.02
2023-04-16T08:09:13.660Z,13.25
2023-04-16T08:10:47.052Z,13.13
2023-04-16T08:12:19.366Z,13.75
2023-04-16T08:13:52.693Z,14.98
2023-04-16T08:15:26.787Z,13.40
2023-04-16T08:17:00.044Z,12.55
2023-04-16T08:18:33.187Z,13.55
2023-04-16T08:20:08.026Z,12.70
2023-04-16T08:23:14.334Z,12.45
2023-04-16T08:24:49.036Z,14.25
2023-04-16T08:26:22.162Z,14.02
2023-04-16T08:27:55.266Z,13.88
2023-04-16T08:29:28.412Z,14.88
2023-04-16T08:31:01.647Z,16.35
2023-04-16T08:32:35.312Z,14.30
2023-04-16T08:34:08.696Z,13.10
2023-04-16T08:35:42.071Z,15.20
2023-04-16T08:37:15.361Z,15.13
2023-04-16T08:38:48.496Z,17.98
2023-04-16T08:40:23.223Z,16.25
2023-04-16T08:41:58.450Z,15.70
2023-04-16T08:43:35.047Z,14.98
2023-04-16T08:45:14.903Z,15.48
2023-04-16T08:46:48.496Z,14.50
2023-04-16T08:48:23.490Z,15.15
2023-04-16T08:50:00.185Z,46.45
2023-04-16T08:51:36.636Z,24.33
2023-04-16T08:53:15.613Z,18.38
2023-04-16T08:55:01.937Z,16.23
2023-04-16T08:56:38.481Z,16.25
2023-04-16T08:58:16.282Z,15.50
2023-04-16T08:59:50.911Z,12.93
2023-04-16T09:01:26.510Z,13.80
2023-04-16T09:03:00.218Z,14.07
2023-04-16T09:04:35.251Z,13.80
2023-04-16T09:06:10.693Z,14.45
2023-04-16T09:07:45.273Z,13.10
2023-04-16T09:09:20.887Z,14.30
2023-04-16T09:10:56.420Z,14.48
2023-04-16T09:12:31.869Z,13.40
2023-04-16T09:14:05.771Z,13.68
2023-04-16T09:15:40.616Z,14.02
2023-04-16T09:18:48.396Z,11.95
2023-04-16T09:20:22.036Z,12.02
2023-04-16T09:21:55.253Z,12.93
2023-04-16T09:23:28.527Z,13.30
2023-04-16T09:25:01.692Z,14.00
2023-04-16T09:26:35.809Z,13.25
2023-04-16T09:28:10.729Z,13.35
2023-04-16T09:29:43.900Z,13.88
2023-04-16T09:31:18.858Z,13.60
2023-04-16T09:32:53.966Z,12.18
2023-04-16T09:34:27.338Z,13.00
2023-04-16T09:36:00.538Z,13.32
2023-04-16T09:37:33.629Z,14.20
2023-04-16T09:39:06.774Z,13.38
2023-04-16T09:40:40.356Z,13.73
2023-04-16T09:42:15.295Z,14.35
2023-04-16T09:45:33.814Z,13.73
2023-04-16T09:47:09.105Z,15.00
2023-04-16T09:48:42.292Z,14.70
2023-04-16T09:50:18.797Z,14.80
2023-04-16T09:51:56.182Z,14.57
2023-04-16T09:53:31.292Z,15.18
2023-04-16T09:55:05.111Z,15.23
2023-04-16T09:56:42.868Z,14.10
2023-04-16T09:58:20.459Z,14.40
2023-04-16T09:59:57.966Z,13.90
2023-04-16T10:01:32.135Z,13.45
2023-04-16T10:03:07.052Z,14.27
2023-04-16T10:04:52.106Z,15.02
2023-04-16T10:06:27.117Z,14.65
2023-04-16T10:08:02.205Z,15.02
2023-04-16T10:09:39.556Z,14.10
2023-04-16T10:11:13.017Z,15.13
2023-04-16T10:12:46.140Z,13.45
2023-04-16T10:14:19.288Z,14.43
2023-04-16T10:15:54.286Z,14.35
2023-04-16T10:17:29.760Z,14.98
2023-04-16T10:19:03.219Z,16.15
2023-04-16T10:20:38.035Z,15.70
2023-04-16T10:22:12.643Z,20.25
2023-04-16T10:23:46.287Z,17.05
2023-04-16T10:25:20.314Z,18.50
2023-04-16T10:26:54.141Z,16.20
2023-04-16T10:28:28.990Z,16.55
2023-04-16T10:31:38.234Z,14.88
2023-04-16T10:33:11.707Z,15.40
2023-04-16T10:34:45.018Z,15.93
2023-04-16T10:36:26.558Z,15.52
2023-04-16T10:38:22.831Z,15.95
2023-04-16T10:39:55.993Z,14.30
2023-04-16T10:41:29.592Z,13.15
2023-04-16T10:43:02.954Z,12.88
2023-04-16T10:44:36.515Z,15.05
2023-04-16T10:46:23.955Z,14.35
2023-04-16T10:47:58.826Z,13.95
2023-04-16T10:49:32.097Z,12.27
2023-04-16T10:51:06.944Z,14.07
2023-04-16T10:52:41.610Z,13.35
2023-04-16T10:54:30.889Z,14.77
2023-04-16T10:56:13.732Z,14.13
2023-04-16T10:57:50.786Z,13.35
2023-04-16T10:59:25.674Z,14.10
2023-04-16T11:02:33.797Z,12.00
2023-04-16T11:04:31.448Z,13.57
2023-04-16T11:06:17.366Z,13.02
2023-04-16T11:07:50.462Z,12.90
2023-04-16T11:09:47.626Z,14.32
2023-04-16T11:11:22.632Z,14.15
2023-04-16T11:12:57.056Z,13.10
2023-04-16T11:14:30.298Z,14.00
2023-04-16T11:16:03.634Z,12.75
2023-04-16T11:17:40.368Z,14.50
2023-04-16T11:19:18.480Z,13.90
2023-04-16T11:20:54.140Z,14.77
2023-04-16T11:22:28.363Z,14.18
2023-04-16T11:24:01.480Z,12.88
2023-04-16T11:25:35.124Z,12.18
2023-04-16T11:27:08.320Z,12.32
2023-04-16T11:28:41.643Z,11.77
2023-04-16T11:30:15.310Z,12.75
2023-04-16T11:31:52.482Z,12.32
2023-04-16T11:33:26.613Z,13.20
2023-04-16T11:35:03.445Z,12.57
2023-04-16T11:36:45.970Z,13.43
2023-04-16T11:38:19.811Z,13.10
2023-04-16T11:39:54.098Z,12.85
2023-04-16T11:41:27.255Z,12.45
2023-04-16T11:43:03.911Z,12.45
2023-04-16T11:44:37.545Z,11.63
2023-04-16T11:46:20.426Z,11.75
2023-04-16T11:47:59.876Z,12.82
2023-04-16T11:49:33.080Z,13.93
2023-04-16T11:51:06.595Z,13.75
2023-04-16T11:52:40.997Z,12.85
2023-04-16T11:54:21.406Z,12.90
2023-04-16T11:55:54.592Z,11.15
2023-04-16T11:57:29.317Z,11.75
2023-04-16T11:59:14.367Z,11.73
2023-04-16T12:00:49.061Z,10.65
2023-04-16T12:02:39.787Z,11.20
2023-04-16T12:04:14.962Z,10.48
2023-04-16T12:05:48.380Z,12.60
2023-04-16T12:07:21.565Z,12.82
2023-04-16T12:08:56.049Z,13.07
2023-04-16T12:10:30.075Z,12.90
2023-04-16T12:12:03.517Z,11.75
2023-04-16T12:13:39.802Z,13.85
2023-04-16T12:15:13.078Z,13.25
2023-04-16T12:16:46.271Z,12.93
2023-04-16T12:18:22.453Z,14.10
2023-04-16T12:19:59.091Z,12.90
2023-04-16T12:21:39.618Z,12.88
2023-04-16T12:25:01.357Z,10.45
2023-04-16T12:26:41.109Z,13.60
2023-04-16T12:28:16.407Z,13.02
2023-04-16T12:30:06.852Z,12.70
2023-04-16T12:31:40.076Z,13.02
2023-04-16T12:33:19.503Z,12.38
2023-04-16T12:34:52.635Z,12.20
2023-04-16T12:36:26.133Z,12.88
2023-04-16T12:37:59.700Z,12.70
2023-04-16T12:39:32.979Z,12.43
2023-04-16T12:41:07.391Z,12.95
2023-04-16T12:42:40.697Z,13.57
2023-04-16T12:44:18.092Z,12.98
2023-04-16T12:45:51.282Z,13.23
2023-04-16T12:47:24.449Z,11.55
2023-04-16T12:48:57.594Z,12.20
2023-04-16T12:50:30.725Z,12.48
2023-04-16T12:52:03.408Z,13.85
2023-04-16T12:53:36.774Z,12.23
2023-04-16T12:55:22.893Z,12.10
2023-04-16T12:56:57.511Z,11.60
2023-04-16T12:58:30.867Z,12.77
2023-04-16T13:00:06.218Z,13.38
2023-04-16T13:01:40.190Z,11.88
2023-04-16T13:03:13.848Z,13.35
2023-04-16T13:04:47.291Z,11.45
2023-04-16T13:06:21.517Z,12.70
2023-04-16T13:07:55.527Z,12.05
2023-04-16T13:09:29.025Z,11.85
2023-04-16T13:11:02.676Z,12.00
2023-04-16T13:12:37.517Z,12.40
2023-04-16T13:14:10.740Z,13.52
2023-04-16T13:15:43.965Z,11.88
2023-04-16T13:17:17.526Z,12.10
2023-04-16T13:18:51.333Z,11.02
2023-04-16T13:20:24.723Z,11.40
2023-04-16T13:21:58.337Z,11.02
2023-04-16T13:23:32.005Z,11.65
2023-04-16T13:25:06.555Z,11.60
2023-04-16T13:26:39.823Z,11.02
2023-04-16T13:28:14.664Z,11.35
2023-04-16T13:29:47.980Z,11.20
2023-04-16T13:31:22.211Z,10.90
2023-04-16T13:32:56.057Z,11.60
2023-04-16T13:34:29.405Z,11.65
2023-04-16T13:36:02.884Z,11.20
2023-04-16T13:37:36.244Z,12.43
2023-04-16T13:39:11.378Z,12.90
2023-04-16T13:40:45.358Z,12.63
2023-04-16T13:42:18.998Z,11.75
2023-04-16T13:43:55.311Z,11.63
2023-04-16T13:45:28.828Z,12.90
2023-04-16T13:47:02.296Z,11.93
2023-04-16T13:48:35.899Z,12.88
2023-04-16T13:50:10.041Z,13.10
2023-04-16T13:51:45.165Z,12.73
2023-04-16T13:53:18.654Z,12.02
2023-04-16T13:54:51.874Z,11.70
2023-04-16T13:56:28.154Z,12.45
2023-04-16T13:58:01.811Z,12.48
2023-04-16T13:59:36.483Z,11.63
2023-04-16T14:01:10.815Z,10.85
2023-04-16T14:02:45.868Z,10.88
2023-04-16T14:04:19.428Z,11.98
2023-04-16T14:05:52.760Z,11.95
2023-04-16T14:07:27.311Z,13.07
2023-04-16T14:09:01.456Z,12.50
2023-04-16T14:10:34.768Z,13.32
2023-04-16T14:12:08.561Z,10.73
2023-04-16T14:13:42.641Z,10.40
2023-04-16T14:15:17.304Z,11.60
2023-04-16T14:18:24.032Z,11.45
2023-04-16T14:19:57.302Z,10.82
2023-04-16T14:21:31.413Z,11.95
2023-04-16T14:23:04.902Z,10.30
2023-04-16T14:24:38.160Z,10.07
2023-04-16T14:26:11.722Z,10.82
2023-04-16T14:27:45.261Z,10.05
2023-04-16T14:29:18.600Z,11.32
2023-04-16T14:30:53.444Z,13.13
2023-04-16T14:34:00.126Z,11.32
2023-04-16T14:35:33.822Z,11.38
2023-04-16T14:37:07.201Z,10.57
2023-04-16T14:38:41.037Z,10.80
2023-04-16T14:40:14.477Z,12.23
2023-04-16T14:41:47.721Z,10.70
2023-04-16T14:43:20.965Z,9.60
2023-04-16T14:44:54.358Z,9.95
2023-04-16T14:46:28.984Z,9.13
2023-04-16T14:48:02.325Z,11.40
2023-04-16T14:49:36.529Z,10.07
2023-04-16T14:51:10.260Z,10.40
2023-04-16T14:52:43.529Z,10.77
2023-04-16T14:54:16.861Z,10.55
2023-04-16T14:55:50.418Z,11.10
2023-04-16T14:57:23.906Z,10.57
2023-04-16T14:58:57.353Z,10.77
2023-04-16T15:00:31.414Z,10.27
2023-04-16T15:02:06.669Z,9.38
2023-04-16T15:03:40.200Z,9.82
2023-04-16T15:05:13.429Z,9.57
2023-04-16T15:06:46.810Z,10.07
2023-04-16T15:08:20.390Z,10.00
2023-04-16T15:09:54.009Z,9.45
2023-04-16T15:11:28.373Z,9.57
2023-04-16T15:13:01.626Z,9.80
2023-04-16T15:14:34.930Z,10.27
2023-04-16T15:16:08.401Z,10.98
2023-04-16T15:17:44.665Z,10.18
2023-04-16T15:19:18.484Z,9.77
2023-04-16T15:20:51.844Z,10.90
2023-04-16T15:22:25.249Z,10.60
2023-04-16T15:23:58.709Z,10.63
2023-04-16T15:25:32.043Z,9.30
2023-04-16T15:27:07.163Z,9.73
2023-04-16T15:28:41.245Z,10.07
2023-04-16T15:30:15.597Z,10.05
2023-04-16T15:31:49.280Z,9.10
2023-04-16T15:33:23.893Z,9.65
2023-04-16T15:34:57.158Z,10.18
2023-04-16T15:36:30.549Z,10.27
2023-04-16T15:38:04.126Z,9.77
2023-04-16T15:39:37.395Z,9.30
2023-04-16T15:41:11.492Z,9.25
2023-04-16T15:42:45.013Z,9.70
2023-04-16T15:44:18.364Z,9.68
2023-04-16T15:45:51.566Z,9.55
2023-04-16T15:47:25.065Z,9.40
2023-04-16T15:48:59.681Z,10.20
2023-04-16T15:50:34.291Z,10.63
2023-04-16T15:52:07.635Z,8.73
2023-04-16T15:53:41.240Z,9.57
2023-04-16T15:55:15.982Z,9.85
2023-04-16T15:58:23.189Z,8.05
2023-04-16T16:00:06.321Z,8.85
2023-04-16T16:01:40.796Z,9.20
2023-04-16T16:03:14.514Z,9.02
2023-04-16T16:04:49.384Z,9.05
2023-04-16T16:06:22.727Z,9.43
2023-04-16T16:07:56.035Z,8.85
2023-04-16T16:09:29.296Z,8.77
2023-04-16T16:11:02.890Z,8.40
2023-04-16T16:12:36.305Z,8.40
2023-04-16T16:14:09.756Z,9.48
2023-04-16T16:15:43.733Z,8.75
2023-04-16T16:17:17.818Z,8.00
2023-04-16T16:18:51.717Z,7.75
2023-04-16T16:20:27.353Z,7.78
2023-04-16T16:22:00.673Z,7.65
2023-04-16T16:23:34.132Z,8.10
2023-04-16T16:25:09.976Z,7.72
2023-04-16T16:26:43.452Z,8.27
2023-04-16T16:28:16.751Z,7.90
2023-04-16T16:29:50.006Z,7.35
2023-04-16T16:31:23.281Z,7.43
2023-04-16T16:32:56.628Z,7.32
2023-04-16T16:34:29.870Z,7.65
2023-04-16T16:36:06.006Z,7.75
2023-04-16T16:37:39.796Z,7.50
2023-04-16T16:39:13.044Z,7.57
2023-04-16T16:40:46.370Z,7.32
2023-04-16T16:42:19.573Z,7.25
2023-04-16T16:43:56.251Z,7.78
2023-04-16T16:45:30.505Z,7.28
2023-04-16T16:47:03.885Z,6.85
2023-04-16T16:48:37.403Z,6.95
2023-04-16T16:50:12.354Z,6.88
2023-04-16T16:51:48.197Z,7.20
2023-04-16T16:53:21.479Z,7.38
2023-04-16T16:54:56.590Z,6.85
2023-04-16T16:56:29.837Z,7.10
2023-04-16T16:58:03.571Z,7.63
2023-04-16T16:59:36.837Z,7.72
2023-04-16T17:01:10.348Z,7.90
2023-04-16T17:02:44.432Z,7.63
2023-04-16T17:04:20.169Z,7.28
2023-04-16T17:05:53.810Z,6.53
2023-04-16T17:07:28.379Z,6.93
2023-04-16T17:09:01.634Z,6.93
2023-04-16T17:10:36.425Z,7.18
2023-04-16T17:13:42.912Z,6.35
2023-04-16T17:15:17.244Z,5.90
2023-04-16T17:16:51.896Z,6.60
2023-04-16T17:18:25.424Z,7.20
2023-04-16T17:20:01.039Z,7.38
2023-04-16T17:21:34.358Z,6.30
2023-04-16T17:23:09.261Z,7.45
2023-04-16T17:24:42.765Z,6.72
2023-04-16T17:26:16.048Z,6.93
2023-04-16T17:27:49.553Z,6.82
2023-04-16T17:29:26.237Z,6.78
2023-04-16T17:30:59.658Z,6.43
2023-04-16T17:32:34.332Z,7.45
2023-04-16T17:34:07.692Z,6.85
2023-04-16T17:35:41.399Z,6.82
2023-04-16T17:37:14.994Z,7.07
2023-04-16T17:38:50.222Z,6.30
2023-04-16T17:40:23.583Z,6.53
2023-04-16T17:41:58.491Z,7.22
2023-04-16T17:43:32.056Z,6.63
2023-04-16T17:45:06.433Z,6.55
2023-04-16T17:46:39.779Z,6.43
2023-04-16T17:48:13.157Z,6.55
2023-04-16T17:49:46.442Z,6.80
2023-04-16T17:51:19.677Z,6.93
2023-04-16T17:52:53.174Z,7.13
2023-04-16T17:54:27.724Z,6.10
2023-04-16T17:56:01.186Z,6.70
2023-04-16T17:57:35.003Z,6.28
2023-04-16T17:59:08.259Z,6.97
2023-04-16T18:00:42.359Z,6.72
2023-04-16T18:02:15.941Z,6.97
2023-04-16T18:03:49.434Z,7.15
2023-04-16T18:05:23.309Z,7.85
2023-04-16T18:06:56.829Z,7.47
2023-04-16T18:08:30.502Z,6.88
2023-04-16T18:10:05.945Z,7.65
2023-04-16T18:11:39.215Z,6.80
2023-04-16T18:13:12.428Z,6.70
2023-04-16T18:14:46.092Z,6.80
2023-04-16T18:16:19.658Z,7.10
2023-04-16T18:17:54.214Z,7.25
2023-04-16T18:19:27.523Z,7.40
2023-04-16T18:21:00.984Z,7.18
2023-04-16T18:22:34.244Z,7.78
2023-04-16T18:24:08.370Z,7.28
2023-04-16T18:25:43.053Z,6.78
2023-04-16T18:27:16.456Z,7.57
2023-04-16T18:28:49.676Z,7.32
2023-04-16T18:30:26.616Z,7.50
2023-04-16T18:32:00.381Z,12.00
2023-04-16T18:33:52.734Z,10.15
2023-04-16T18:35:29.412Z,8.25
2023-04-16T18:37:02.848Z,9.23
2023-04-16T18:38:39.628Z,10.73
2023-04-16T18:40:20.206Z,7.90
2023-04-16T18:41:54.982Z,6.85
2023-04-16T18:43:29.019Z,5.53
2023-04-16T18:45:02.518Z,6.93
2023-04-16T18:46:36.267Z,6.90
2023-04-16T18:48:09.508Z,7.82
2023-04-16T18:49:42.997Z,7.22
2023-04-16T18:51:16.709Z,9.07
2023-04-16T18:52:50.303Z,9.05
2023-04-16T18:54:23.707Z,8.48
2023-04-16T18:55:56.993Z,11.15
2023-04-16T18:57:31.568Z,9.57
2023-04-16T18:59:04.939Z,9.15
2023-04-16T19:00:38.185Z,9.23
2023-04-16T19:02:11.432Z,10.32
2023-04-16T19:03:45.632Z,8.75
2023-04-16T19:05:21.228Z,8.10
2023-04-16T19:06:54.774Z,7.43
2023-04-16T19:08:28.223Z,7.38
2023-04-16T19:10:02.629Z,8.50
2023-04-16T19:11:35.958Z,6.78
2023-04-16T19:13:10.815Z,7.45
2023-04-16T19:16:17.501Z,6.97
2023-04-16T19:17:51.103Z,6.45
2023-04-16T19:19:24.377Z,6.88
2023-04-16T19:21:00.923Z,7.50
2023-04-16T19:22:34.235Z,6.60
2023-04-16T19:24:08.383Z,6.72
2023-04-16T19:25:41.792Z,8.20
2023-04-16T19:27:15.281Z,8.18
2023-04-16T19:28:50.131Z,8.02
2023-04-16T19:31:56.668Z,6.38
2023-04-16T19:33:29.946Z,6.53
2023-04-16T19:35:03.687Z,5.78
2023-04-16T19:36:36.997Z,6.15
2023-04-16T19:38:11.002Z,6.47
2023-04-16T19:39:44.255Z,6.53
2023-04-16T19:41:17.714Z,6.40
2023-04-16T19:42:51.455Z,6.88
2023-04-16T19:44:27.572Z,7.28
2023-04-16T19:46:01.037Z,7.15
2023-04-16T19:47:34.422Z,6.38
2023-04-16T19:49:07.902Z,6.88
2023-04-16T19:50:41.729Z,6.10
2023-04-16T19:52:15.183Z,6.45
2023-04-16T19:53:48.435Z,6.57
2023-04-16T19:55:22.621Z,6.25
2023-04-16T19:56:56.966Z,7.30
2023-04-16T19:58:30.237Z,6.38
2023-04-16T20:00:08.740Z,6.63
2023-04-16T20:01:42.064Z,6.55
2023-04-16T20:03:15.549Z,6.60
2023-04-16T20:04:48.918Z,6.13
2023-04-16T20:06:22.251Z,5.70
2023-04-16T20:07:56.311Z,6.13
2023-04-16T20:09:29.553Z,6.25
2023-04-16T20:11:03.088Z,5.90
2023-04-16T20:12:37.753Z,6.28
2023-04-16T20:14:11.200Z,6.65
2023-04-16T20:16:01.597Z,4.85
2023-04-16T20:17:34.972Z,5.72
2023-04-16T20:19:09.106Z,6.07
2023-04-16T20:20:42.774Z,6.55
2023-04-16T20:22:18.323Z,5.57
2023-04-16T20:23:51.756Z,6.13
2023-04-16T20:25:26.099Z,6.25
2023-04-16T20:26:59.684Z,6.28
2023-04-16T20:28:32.961Z,6.30
2023-04-16T20:30:07.750Z,5.97
2023-04-16T20:33:17.662Z,5.90
2023-04-16T20:34:51.018Z,6.40
2023-04-16T20:36:24.123Z,6.65
2023-04-16T20:37:57.352Z,6.28
2023-04-16T20:39:34.023Z,6.72
2023-04-16T20:41:10.892Z,5.93
2023-04-16T20:42:46.410Z,5.90
2023-04-16T20:44:25.900Z,5.88
2023-04-16T20:45:59.085Z,6.22
2023-04-16T20:47:34.736Z,6.30
2023-04-16T20:49:08.901Z,6.32
2023-04-16T20:50:42.183Z,7.25
2023-04-16T20:52:15.950Z,7.18
2023-04-16T20:53:50.049Z,8.27
2023-04-16T20:55:23.229Z,7.60
2023-04-16T20:56:56.882Z,10.88
2023-04-16T20:58:30.512Z,9.07
2023-04-16T21:00:05.617Z,8.73
2023-04-16T21:01:38.899Z,8.02
2023-04-16T21:03:13.377Z,9.55